UMMS/MSQ METAR and TAF weather

Enter ICAO airport designator
Station Type Date Time Source
UMMS METAR 2018/12/18 19:00 UTC NOAA

UMMS 181900Z 16002MPS 8000 BKN006 BKN014 M05/M06 Q1031 R13/850342 NOSIG RMK QBB190


Station Type Date Time Source
UMMS Decoded METAR 2018/12/18 19:00 UTC NOAA

Minsk, Belarus (UMMS) 53-56N 027-38E 231M
Dec 18, 2018 - 02:00 PM EST / 2018.12.18 1900 UTC
Wind: from the SSE (160 degrees) at 4 MPH (4 KT):0
Visibility: 4 mile(s):0
Sky conditions: mostly cloudy
Temperature: 23 F (-5 C)
Dew Point: 21 F (-6 C)
Relative Humidity: 92%
Pressure (altimeter): 30.45 in. Hg (1031 hPa)
ob: UMMS 181900Z 16002MPS 8000 BKN006 BKN014 M05/M06 Q1031 R13/850342 NOSIG RMK QBB190
cycle: 19

Station Type Date Time Source
UMMS TAF 2018/12/18 18:21 UTC NOAA

TAF TAF UMMS 181708Z 1818/1918 15005MPS 3000 BR BKN003
TEMPO 1818/1908 0300 -SHSN FZFG OVC002 BKN010CB
TEMPO 1909/1918 1200 SHSN BKN010CB


Example: see airport list